Time;durP1;ratioP1;P1;durP2;ratioP2;P2;SDS_P1;SDS_P2;PMS_P1;PMS_P2;Temp;Humidity;BMP_temperature;BMP_pressure;BME280_temperature;BME280_humidity;BME280_pressure;Samples;Min_cycle;Max_cycle;Signal;HPM_P1;HPM_P2
2023/05/07 00:02:29;;;;;;;13.67;12.20;;;14.50;99.90;;;;;;2614061;54;20133;-81
2023/05/07 00:08:17;;;;;;;16.17;13.97;;;14.40;99.90;;;;;;2614721;54;20354;-81
2023/05/07 00:14:05;;;;;;;14.33;13.10;;;14.50;99.90;;;;;;2624172;54;20131;-80
2023/05/07 00:19:54;;;;;;;13.97;12.67;;;14.40;99.90;;;;;;2623560;54;20129;-79
2023/05/07 00:25:42;;;;;;;13.10;11.90;;;14.40;99.90;;;;;;2615455;54;20901;-79
2023/05/07 00:31:30;;;;;;;12.87;11.80;;;14.30;99.90;;;;;;2617583;39;20683;-80
2023/05/07 00:37:17;;;;;;;14.10;12.80;;;14.30;99.90;;;;;;2619693;54;20130;-78
2023/05/07 00:43:06;;;;;;;15.00;13.60;;;14.30;99.90;;;;;;2618916;54;20179;-81
2023/05/07 00:52:54;;;;;;;14.10;12.80;;;14.30;99.90;;;;;;2612125;39;21121;-79
2023/05/07 00:58:42;;;;;;;17.03;15.37;;;14.10;99.90;;;;;;2611422;54;20438;-79
2023/05/07 01:04:30;;;;;;;16.80;14.97;;;14.10;99.90;;;;;;2611306;54;20442;-81
2023/05/07 01:10:19;;;;;;;15.27;13.83;;;14.10;99.90;;;;;;2611437;54;20295;-80
2023/05/07 01:16:09;;;;;;;19.53;17.60;;;14.10;99.90;;;;;;2608736;54;21079;-79
2023/05/07 01:22:04;;;;;;;20.27;18.37;;;14.20;99.90;;;;;;2611240;54;20418;-79
2023/05/07 01:27:51;;;;;;;19.63;17.67;;;14.20;99.90;;;;;;2612318;54;20921;-79
2023/05/07 01:33:42;;;;;;;19.77;17.77;;;14.30;99.90;;;;;;2613961;54;20138;-78
2023/05/07 01:39:32;;;;;;;21.20;19.10;;;14.30;99.90;;;;;;2612793;54;20367;-79
2023/05/07 01:45:20;;;;;;;20.90;18.07;;;14.20;99.90;;;;;;2612877;54;20579;-81
2023/05/07 01:48:23;;;;;;;20.97;18.80;;;14.20;99.90;;;;;;2614659;39;20841;-83
2023/05/07 01:50:51;;;;;;;22.37;20.17;;;14.10;99.90;;;;;;2613298;47;20538;-81
2023/05/07 01:56:39;;;;;;;23.00;20.90;;;14.20;99.90;;;;;;2613480;54;20394;-82
2023/05/07 02:02:27;;;;;;;23.90;21.40;;;14.10;99.90;;;;;;2613099;54;20644;-79
2023/05/07 02:08:15;;;;;;;23.40;21.17;;;14.00;99.90;;;;;;2612842;54;20656;-79
2023/05/07 02:14:03;;;;;;;24.13;21.63;;;14.00;99.90;;;;;;2613248;39;20518;-79
2023/05/07 02:19:50;;;;;;;24.43;21.93;;;13.90;99.90;;;;;;2614640;39;20505;-79
2023/05/07 02:25:38;;;;;;;25.43;22.80;;;13.90;99.90;;;;;;2614898;54;20150;-81
2023/05/07 02:31:26;;;;;;;25.30;22.60;;;13.80;99.90;;;;;;2614256;54;20134;-81
2023/05/07 02:37:14;;;;;;;25.10;22.50;;;13.70;99.90;;;;;;2614270;39;20534;-81
2023/05/07 02:43:02;;;;;;;27.70;24.70;;;13.70;99.90;;;;;;2616359;54;20698;-81
2023/05/07 02:52:56;;;;;;;28.83;24.60;;;13.60;99.90;;;;;;2614384;46;20403;-82
2023/05/07 02:58:44;;;;;;;31.53;26.80;;;13.60;99.90;;;;;;2615638;39;20814;-81
2023/05/07 03:04:31;;;;;;;30.77;26.07;;;13.50;99.90;;;;;;2613768;54;20150;-81
2023/05/07 03:10:20;;;;;;;25.33;22.60;;;13.50;99.90;;;;;;2613834;54;20238;-80
2023/05/07 03:16:07;;;;;;;25.93;23.37;;;13.40;99.90;;;;;;2614386;54;20130;-80
2023/05/07 03:21:55;;;;;;;28.53;24.77;;;13.40;99.90;;;;;;2613704;31;20661;-80
2023/05/07 03:27:43;;;;;;;25.13;22.23;;;13.40;99.90;;;;;;2614002;54;20251;-81
2023/05/07 03:33:34;;;;;;;28.23;25.30;;;13.50;99.90;;;;;;2612873;54;20165;-81
2023/05/07 03:39:22;;;;;;;30.27;24.87;;;13.40;99.90;;;;;;2613080;54;20403;-81
2023/05/07 03:45:10;;;;;;;27.97;24.60;;;13.40;99.90;;;;;;2614083;54;20955;-81
2023/05/07 03:48:26;;;;;;;32.30;28.33;;;13.40;99.90;;;;;;2613253;54;20415;-82
2023/05/07 03:54:13;;;;;;;32.40;28.20;;;13.40;99.90;;;;;;2616450;54;20438;-81
2023/05/07 04:00:04;;;;;;;34.37;27.40;;;13.40;99.90;;;;;;2613554;54;20649;-81
2023/05/07 04:05:52;;;;;;;34.73;30.37;;;13.50;99.90;;;;;;2613091;54;20459;-81
2023/05/07 04:11:40;;;;;;;38.77;32.53;;;13.50;99.90;;;;;;2612812;54;20157;-81
2023/05/07 04:17:28;;;;;;;39.73;33.17;;;13.50;99.90;;;;;;2613629;54;20130;-81
2023/05/07 04:23:15;;;;;;;43.93;32.40;;;13.40;99.90;;;;;;2615514;54;21161;-79
2023/05/07 04:29:03;;;;;;;36.97;30.77;;;13.50;99.90;;;;;;2615852;54;20375;-81
2023/05/07 04:34:51;;;;;;;37.40;32.30;;;13.50;99.90;;;;;;2613170;39;20529;-80
2023/05/07 04:40:39;;;;;;;35.97;31.97;;;13.60;99.90;;;;;;2615656;54;20165;-81
2023/05/07 04:43:42;;;;;;;42.27;32.40;;;13.50;99.90;;;;;;2614324;54;20391;-81
2023/05/07 04:46:08;;;;;;;39.67;32.37;;;13.70;99.90;;;;;;2613715;54;20279;-81
2023/05/07 04:51:56;;;;;;;33.73;27.60;;;13.80;99.90;;;;;;2612784;54;20190;-81
2023/05/07 04:57:43;;;;;;;31.30;27.90;;;13.90;99.90;;;;;;2613424;54;20243;-80
2023/05/07 05:03:31;;;;;;;29.53;26.43;;;14.10;99.90;;;;;;2614391;31;20550;-81
2023/05/07 05:09:19;;;;;;;32.27;23.87;;;14.20;99.90;;;;;;2613124;54;20191;-82
2023/05/07 05:15:08;;;;;;;26.63;23.73;;;14.40;99.90;;;;;;2613032;54;20391;-83
2023/05/07 05:20:56;;;;;;;23.93;21.50;;;14.70;99.90;;;;;;2612949;54;20539;-82
2023/05/07 05:26:44;;;;;;;23.63;21.37;;;14.80;99.90;;;;;;2611926;54;20130;-82
2023/05/07 05:32:32;;;;;;;21.07;18.87;;;15.10;99.90;;;;;;2615278;54;20247;-83
2023/05/07 05:38:20;;;;;;;18.67;16.87;;;15.30;99.90;;;;;;2616008;39;20776;-81
2023/05/07 05:44:08;;;;;;;16.13;14.63;;;16.20;99.90;;;;;;2616047;54;20371;-82
2023/05/07 05:54:11;;;;;;;19.97;18.07;;;16.50;99.90;;;;;;2618585;54;20459;-82
2023/05/07 06:00:01;;;;;;;15.30;14.10;;;16.70;99.90;;;;;;2627135;54;20392;-78
2023/05/07 06:05:48;;;;;;;15.03;13.73;;;17.30;99.90;;;;;;2626683;54;20363;-79
2023/05/07 06:11:36;;;;;;;13.50;12.40;;;16.80;99.90;;;;;;2628017;54;20138;-82
2023/05/07 06:17:24;;;;;;;13.80;12.63;;;16.80;99.90;;;;;;2626124;54;20126;-83
2023/05/07 06:23:13;;;;;;;12.27;11.07;;;16.60;99.90;;;;;;2619013;54;20666;-82
2023/05/07 06:29:01;;;;;;;12.33;11.10;;;16.90;99.90;;;;;;2617648;54;20420;-82
2023/05/07 06:34:49;;;;;;;10.80;10.10;;;17.20;99.90;;;;;;2617600;54;20122;-81
2023/05/07 06:40:37;;;;;;;10.50;9.80;;;17.10;99.90;;;;;;2617168;54;20632;-81
2023/05/07 06:46:25;;;;;;;11.00;10.30;;;17.40;99.90;;;;;;2615904;54;20155;-82
2023/05/07 06:49:42;;;;;;;14.87;13.57;;;17.00;99.90;;;;;;2614768;47;20411;-82
2023/05/07 06:52:08;;;;;;;13.70;11.70;;;17.20;99.90;;;;;;2614129;46;20485;-81
2023/05/07 06:58:00;;;;;;;12.07;11.20;;;17.30;99.90;;;;;;2615240;54;20515;-82
2023/05/07 07:03:48;;;;;;;10.00;9.20;;;17.30;99.90;;;;;;2614964;54;20387;-82
2023/05/07 07:09:36;;;;;;;14.17;12.87;;;17.60;99.90;;;;;;2615116;54;20154;-80
2023/05/07 07:15:25;;;;;;;10.43;8.63;;;18.00;99.90;;;;;;2615218;54;20115;-79
2023/05/07 07:21:13;;;;;;;13.13;12.20;;;18.00;99.90;;;;;;2613844;54;20427;-78
2023/05/07 07:27:01;;;;;;;9.30;8.60;;;18.10;99.90;;;;;;2614788;54;20143;-80
2023/05/07 07:32:49;;;;;;;10.23;9.57;;;17.80;99.90;;;;;;2615043;39;20540;-80
2023/05/07 07:38:37;;;;;;;8.43;7.80;;;18.00;99.90;;;;;;2615286;54;20154;-80
2023/05/07 07:44:25;;;;;;;8.70;8.00;;;18.30;99.90;;;;;;2612802;54;20134;-80
2023/05/07 07:54:12;;;;;;;9.73;9.13;;;19.00;99.90;;;;;;2613631;54;20399;-80
2023/05/07 08:00:00;;;;;;;8.40;7.90;;;19.00;99.90;;;;;;2615037;54;20414;-78
2023/05/07 08:05:50;;;;;;;9.60;9.10;;;19.10;99.90;;;;;;2614094;54;20406;-79
2023/05/07 08:11:39;;;;;;;12.93;10.90;;;18.40;99.90;;;;;;2614265;54;20415;-79
2023/05/07 08:17:26;;;;;;;12.53;11.73;;;18.60;99.90;;;;;;2614995;54;20524;-82
2023/05/07 08:23:15;;;;;;;11.80;10.90;;;18.90;99.90;;;;;;2614918;54;20131;-81
2023/05/07 08:29:02;;;;;;;11.60;10.80;;;19.20;99.90;;;;;;2614957;54;20126;-81
2023/05/07 08:34:51;;;;;;;11.07;10.37;;;19.60;99.90;;;;;;2614551;54;20123;-82
2023/05/07 08:40:40;;;;;;;12.03;11.30;;;19.90;99.90;;;;;;2614670;54;20495;-82
2023/05/07 08:46:32;;;;;;;11.70;11.00;;;20.70;99.90;;;;;;2613373;54;20925;-82
2023/05/07 08:49:43;;;;;;;12.17;11.37;;;21.00;99.90;;;;;;2614062;54;20518;-82
2023/05/07 08:52:09;;;;;;;13.63;12.73;;;21.40;99.90;;;;;;2613778;54;20439;-83
2023/05/07 08:57:57;;;;;;;13.70;12.80;;;20.80;99.90;;;;;;2613747;54;20150;-81
2023/05/07 09:03:46;;;;;;;13.03;12.20;;;20.40;99.90;;;;;;2614650;54;20138;-82
2023/05/07 09:09:34;;;;;;;12.50;11.60;;;20.30;99.90;;;;;;2615456;54;20921;-82
2023/05/07 09:15:22;;;;;;;11.53;10.93;;;20.60;99.90;;;;;;2614937;54;20747;-80
2023/05/07 09:21:11;;;;;;;13.37;12.53;;;21.50;99.90;;;;;;2615907;54;20130;-84
2023/05/07 09:27:01;;;;;;;12.23;11.63;;;21.60;99.90;;;;;;2616294;54;20383;-83
2023/05/07 09:32:49;;;;;;;12.60;11.90;;;22.50;99.90;;;;;;2617224;54;20408;-82
2023/05/07 09:38:37;;;;;;;12.73;11.90;;;23.00;99.90;;;;;;2616069;54;20175;-83
2023/05/07 09:44:26;;;;;;;13.67;12.87;;;22.50;99.90;;;;;;2615840;54;20515;-82
2023/05/07 09:54:14;;;;;;;13.70;12.70;;;22.70;99.90;;;;;;2616021;54;20941;-84
2023/05/07 10:00:05;;;;;;;13.90;12.93;;;22.70;99.90;;;;;;2615436;54;21065;-83
2023/05/07 10:05:54;;;;;;;14.07;13.27;;;23.10;97.20;;;;;;2616505;54;20395;-82
2023/05/07 10:11:42;;;;;;;13.67;12.77;;;22.30;98.60;;;;;;2615383;54;20419;-84
2023/05/07 10:17:31;;;;;;;12.50;11.90;;;22.80;94.30;;;;;;2617091;46;20403;-84
2023/05/07 10:23:23;;;;;;;14.20;13.30;;;24.30;64.20;;;;;;2614004;54;20439;-83
2023/05/07 10:29:24;;;;;;;13.03;12.43;;;23.50;66.20;;;;;;2613701;54;20400;-83
2023/05/07 10:42:11;;;;;;;14.57;13.77;;;24.20;52.10;;;;;;2616133;39;20788;-84
2023/05/07 10:48:16;;;;;;;13.90;13.10;;;24.50;45.90;;;;;;2615610;54;20523;-84
2023/05/07 10:54:10;;;;;;;13.30;12.60;;;24.30;47.90;;;;;;2623079;54;20460;-84
2023/05/07 10:59:58;;;;;;;14.53;13.83;;;26.00;39.20;;;;;;2622204;54;20407;-84
2023/05/07 11:05:47;;;;;;;13.90;13.17;;;24.70;43.00;;;;;;2624783;54;20179;-86
2023/05/07 11:18:11;;;;;;;13.37;12.60;;;24.60;43.00;;;;;;2619655;54;20388;-85
2023/05/07 11:24:00;;;;;;;13.57;12.87;;;24.40;39.10;;;;;;2616428;54;20392;-84
2023/05/07 11:29:48;;;;;;;14.43;13.73;;;24.20;40.30;;;;;;2616343;54;20961;-83
2023/05/07 11:35:36;;;;;;;14.70;13.83;;;23.50;45.60;;;;;;2615323;54;20203;-85
2023/05/07 11:48:03;;;;;;;15.07;14.27;;;23.50;50.00;;;;;;2613234;54;20448;-84
2023/05/07 11:57:16;;;;;;;19.80;18.40;;;23.30;52.40;;;;;;2613587;54;20527;-83
2023/05/07 12:03:04;;;;;;;97.80;60.80;;;23.70;49.80;;;;;;2614488;54;20411;-85
2023/05/07 12:08:53;;;;;;;504.90;307.53;;;23.70;49.30;;;;;;2613498;54;20419;-85
2023/05/07 12:14:44;;;;;;;17.83;16.70;;;24.00;46.60;;;;;;2613890;54;20450;-83
2023/05/07 12:20:34;;;;;;;113.47;70.10;;;24.00;42.00;;;;;;2616190;54;20415;-83
2023/05/07 12:26:22;;;;;;;101.03;62.43;;;23.60;47.70;;;;;;2615479;47;20410;-85
2023/05/07 12:32:15;;;;;;;230.27;127.47;;;23.30;46.90;;;;;;2615848;54;20151;-84
2023/05/07 12:38:07;;;;;;;15.90;15.10;;;23.30;50.70;;;;;;2614273;54;20921;-84
2023/05/07 12:43:57;;;;;;;24.33;22.03;;;22.50;46.20;;;;;;2614732;54;20423;-83
2023/05/07 12:49:46;;;;;;;44.93;32.30;;;22.60;48.30;;;;;;2614460;54;20410;-84
2023/05/07 12:52:33;;;;;;;53.37;35.40;;;22.60;47.80;;;;;;2613862;54;20495;-86
2023/05/07 13:01:31;;;;;;;17.23;16.17;;;22.40;54.50;;;;;;2612783;54;20407;-86
2023/05/07 13:07:19;;;;;;;16.10;15.10;;;21.80;57.80;;;;;;2615215;54;20422;-86
2023/05/07 13:13:07;;;;;;;16.60;15.60;;;21.70;56.10;;;;;;2615966;54;20166;-85
2023/05/07 13:18:54;;;;;;;29.20;26.40;;;21.70;58.80;;;;;;2616521;54;20126;-84
2023/05/07 13:24:43;;;;;;;109.27;50.30;;;21.50;58.80;;;;;;2615424;54;20633;-86
2023/05/07 13:30:31;;;;;;;21.57;19.50;;;21.30;70.50;;;;;;2615782;54;20406;-82
2023/05/07 13:36:19;;;;;;;31.30;27.00;;;21.20;85.60;;;;;;2614375;54;20165;-85
2023/05/07 13:42:07;;;;;;;16.37;15.43;;;21.10;91.10;;;;;;2612672;54;20484;-83
2023/05/07 13:47:55;;;;;;;17.20;16.10;;;21.30;90.80;;;;;;2613362;39;21901;-84
2023/05/07 13:57:06;;;;;;;17.47;16.37;;;21.20;98.20;;;;;;2614022;54;20415;-83
2023/05/07 14:02:54;;;;;;;17.37;16.30;;;21.00;99.90;;;;;;2612389;54;20154;-84
2023/05/07 14:08:42;;;;;;;18.37;17.10;;;21.10;99.90;;;;;;2615473;39;20776;-86
2023/05/07 14:14:30;;;;;;;17.90;16.80;;;21.10;98.50;;;;;;2616038;54;20189;-85
2023/05/07 14:20:18;;;;;;;16.00;15.00;;;20.90;99.90;;;;;;2613191;54;20134;-85
2023/05/07 14:26:06;;;;;;;16.50;15.50;;;20.80;99.90;;;;;;2615288;54;20395;-84
2023/05/07 14:31:53;;;;;;;18.03;16.73;;;20.70;99.90;;;;;;2615743;54;20134;-85
2023/05/07 14:37:41;;;;;;;16.33;15.13;;;20.60;99.90;;;;;;2615483;39;20504;-85
2023/05/07 14:43:29;;;;;;;13.87;12.77;;;20.20;99.90;;;;;;2613716;54;20126;-86
2023/05/07 14:49:17;;;;;;;11.13;10.13;;;20.10;99.90;;;;;;2616018;54;20246;-85
2023/05/07 14:52:31;;;;;;;12.47;10.57;;;20.10;99.90;;;;;;2613881;54;20463;-85
2023/05/07 14:54:57;;;;;;;11.40;10.30;;;20.00;99.90;;;;;;2615809;47;20178;-85
2023/05/07 15:00:45;;;;;;;10.47;9.57;;;19.90;99.90;;;;;;2616420;39;20209;-84
2023/05/07 15:06:34;;;;;;;11.00;9.30;;;19.90;99.90;;;;;;2616411;54;20641;-85
2023/05/07 15:12:22;;;;;;;13.67;12.50;;;19.80;99.90;;;;;;2616861;54;21069;-85
2023/05/07 15:18:10;;;;;;;10.47;9.57;;;19.90;99.90;;;;;;2618146;54;20522;-82
2023/05/07 15:23:58;;;;;;;11.47;10.53;;;19.90;99.90;;;;;;2618783;54;20150;-81
2023/05/07 15:29:46;;;;;;;12.47;9.90;;;19.90;99.90;;;;;;2619225;54;20173;-81
2023/05/07 15:35:35;;;;;;;11.30;10.07;;;20.10;99.90;;;;;;2619995;54;20122;-81
2023/05/07 15:41:23;;;;;;;10.40;9.50;;;20.20;99.90;;;;;;2621087;54;20419;-80
2023/05/07 15:47:13;;;;;;;11.60;10.70;;;20.20;99.90;;;;;;2619414;54;20653;-81
2023/05/07 15:57:03;;;;;;;12.30;11.30;;;19.70;99.90;;;;;;2620629;54;20403;-80
2023/05/07 16:02:50;;;;;;;12.60;11.70;;;20.10;99.90;;;;;;2619198;54;20406;-80
2023/05/07 16:08:40;;;;;;;10.40;9.60;;;20.00;99.90;;;;;;2624535;54;20122;-81
2023/05/07 16:14:28;;;;;;;10.90;9.50;;;19.80;99.90;;;;;;2624356;54;20411;-81
2023/05/07 16:20:18;;;;;;;10.87;10.03;;;19.80;99.90;;;;;;2617405;54;20239;-79
2023/05/07 16:26:06;;;;;;;10.00;9.30;;;19.80;99.90;;;;;;2614662;54;20945;-81
2023/05/07 16:31:57;;;;;;;10.53;9.70;;;20.00;99.90;;;;;;2616991;54;20162;-81
2023/05/07 16:37:45;;;;;;;8.33;7.73;;;20.00;99.90;;;;;;2616517;54;20394;-80
2023/05/07 16:43:33;;;;;;;8.67;8.17;;;19.70;99.90;;;;;;2615678;54;20151;-80
2023/05/07 16:49:21;;;;;;;10.20;9.50;;;19.80;99.90;;;;;;2616868;54;20272;-80
2023/05/07 16:52:31;;;;;;;11.87;10.97;;;19.80;99.90;;;;;;2614559;54;20423;-80
2023/05/07 16:55:00;;;;;;;10.80;10.00;;;19.80;99.90;;;;;;2613243;54;20151;-80
2023/05/07 17:00:48;;;;;;;12.40;10.23;;;19.80;99.90;;;;;;2615294;54;20375;-80
2023/05/07 17:06:35;;;;;;;11.43;10.63;;;19.90;99.90;;;;;;2615639;54;20134;-82
2023/05/07 17:12:24;;;;;;;11.33;10.53;;;19.80;99.90;;;;;;2616312;54;20154;-79
2023/05/07 17:18:12;;;;;;;11.10;10.40;;;19.70;99.90;;;;;;2618762;54;20435;-85
2023/05/07 17:24:00;;;;;;;10.87;10.17;;;19.70;99.90;;;;;;2626264;54;20420;-84
2023/05/07 17:29:48;;;;;;;10.87;10.10;;;19.70;99.90;;;;;;2626011;46;20146;-83
2023/05/07 17:35:36;;;;;;;11.70;10.90;;;19.40;99.90;;;;;;2625933;54;20135;-85
2023/05/07 17:41:24;;;;;;;11.17;10.47;;;19.30;99.90;;;;;;2622426;54;20154;-84
2023/05/07 17:47:13;;;;;;;11.83;11.00;;;19.10;99.90;;;;;;2621193;54;20138;-85
2023/05/07 17:57:03;;;;;;;11.80;11.00;;;19.00;99.90;;;;;;2617328;54;20418;-83
2023/05/07 18:02:52;;;;;;;11.60;10.80;;;18.90;99.90;;;;;;2616985;54;20439;-84
2023/05/07 18:08:40;;;;;;;12.73;11.83;;;18.80;99.90;;;;;;2616905;54;20491;-85
2023/05/07 18:14:28;;;;;;;10.90;10.20;;;18.80;99.90;;;;;;2616310;54;20143;-83
2023/05/07 18:20:16;;;;;;;9.50;9.00;;;18.70;99.90;;;;;;2616331;54;20129;-84
2023/05/07 18:26:04;;;;;;;11.13;10.33;;;18.60;99.90;;;;;;2616436;54;20427;-85
2023/05/07 18:31:52;;;;;;;10.23;9.53;;;18.60;99.90;;;;;;2614758;54;21000;-84
2023/05/07 18:37:40;;;;;;;12.40;11.50;;;18.60;99.90;;;;;;2615175;46;20626;-84
2023/05/07 18:43:28;;;;;;;10.87;10.07;;;18.40;99.90;;;;;;2614623;54;20142;-84
2023/05/07 18:49:16;;;;;;;11.00;10.20;;;18.30;99.90;;;;;;2617120;54;20250;-80
2023/05/07 18:52:33;;;;;;;10.57;9.77;;;18.30;99.90;;;;;;2616557;54;20451;-80
2023/05/07 18:54:59;;;;;;;9.80;9.20;;;18.30;99.90;;;;;;2615907;39;20833;-81
2023/05/07 19:00:48;;;;;;;10.73;10.03;;;18.10;99.90;;;;;;2614455;54;20738;-81
2023/05/07 19:06:35;;;;;;;10.03;9.43;;;18.00;99.90;;;;;;2615622;54;20387;-81
2023/05/07 19:12:24;;;;;;;10.10;9.40;;;17.90;99.90;;;;;;2614947;54;20991;-80
2023/05/07 19:18:11;;;;;;;9.33;8.73;;;17.90;99.90;;;;;;2617742;54;20394;-81
2023/05/07 19:23:59;;;;;;;9.07;8.10;;;17.80;99.90;;;;;;2617192;54;20170;-81
2023/05/07 19:29:47;;;;;;;8.17;7.67;;;17.50;99.90;;;;;;2615438;54;20179;-81
2023/05/07 19:35:35;;;;;;;10.53;9.53;;;17.40;99.90;;;;;;2614825;54;20202;-81
2023/05/07 19:41:23;;;;;;;8.27;7.57;;;17.30;99.90;;;;;;2617166;54;20134;-81
2023/05/07 19:47:11;;;;;;;9.50;8.60;;;17.20;99.90;;;;;;2616814;54;20139;-81
2023/05/07 19:57:05;;;;;;;9.10;7.63;;;17.10;99.90;;;;;;2617407;54;20410;-80
2023/05/07 20:02:52;;;;;;;8.30;7.60;;;17.00;99.90;;;;;;2615629;39;20519;-82
2023/05/07 20:08:42;;;;;;;8.53;7.77;;;17.00;99.90;;;;;;2616326;54;20129;-81
2023/05/07 20:14:31;;;;;;;10.87;9.87;;;17.00;99.90;;;;;;2613930;54;20390;-81
2023/05/07 20:20:19;;;;;;;10.20;9.30;;;17.00;99.90;;;;;;2615997;54;20467;-81
2023/05/07 20:26:07;;;;;;;13.33;12.03;;;16.90;99.90;;;;;;2615402;54;20394;-82
2023/05/07 20:31:54;;;;;;;13.93;12.63;;;16.90;99.90;;;;;;2614470;54;20149;-81
2023/05/07 20:37:42;;;;;;;13.47;12.10;;;16.90;99.90;;;;;;2614462;54;20121;-83
2023/05/07 20:43:30;;;;;;;13.00;11.90;;;16.80;99.90;;;;;;2614929;54;20131;-85
2023/05/07 20:49:20;;;;;;;16.77;15.17;;;16.70;99.90;;;;;;2611998;54;20165;-83
2023/05/07 20:58:30;;;;;;;16.23;14.70;;;16.60;99.90;;;;;;2617504;54;20395;-83
2023/05/07 21:04:18;;;;;;;17.70;15.23;;;16.50;99.90;;;;;;2618812;54;20252;-83
2023/05/07 21:10:06;;;;;;;16.60;15.00;;;16.40;99.90;;;;;;2618029;54;20157;-84
2023/05/07 21:15:54;;;;;;;18.07;16.00;;;16.40;99.90;;;;;;2619642;54;20431;-84
2023/05/07 21:21:42;;;;;;;17.67;15.87;;;16.20;99.90;;;;;;2615960;54;20231;-83
2023/05/07 21:27:29;;;;;;;18.33;16.40;;;16.10;99.90;;;;;;2615044;54;20418;-83
2023/05/07 21:33:18;;;;;;;16.20;14.33;;;16.00;99.90;;;;;;2616379;39;20584;-84
2023/05/07 21:39:09;;;;;;;19.70;17.60;;;15.90;99.90;;;;;;2615104;54;20937;-82
2023/05/07 21:44:57;;;;;;;19.80;17.80;;;15.80;99.90;;;;;;2615655;39;20776;-83
2023/05/07 21:50:46;;;;;;;19.03;16.93;;;15.80;99.90;;;;;;2614766;54;20154;-83
2023/05/07 21:53:51;;;;;;;18.57;16.67;;;15.70;99.90;;;;;;2614452;54;20422;-85
2023/05/07 21:56:17;;;;;;;18.53;16.53;;;15.60;99.90;;;;;;2615447;54;20428;-83
2023/05/07 22:02:05;;;;;;;21.93;18.60;;;15.50;99.90;;;;;;2615028;54;20175;-83
2023/05/07 22:07:53;;;;;;;21.23;18.63;;;15.40;99.90;;;;;;2616033;54;20676;-82
2023/05/07 22:13:41;;;;;;;25.80;19.13;;;15.40;99.90;;;;;;2616510;54;20146;-83
2023/05/07 22:19:29;;;;;;;21.03;18.93;;;15.40;99.90;;;;;;2616581;54;20170;-83
2023/05/07 22:25:17;;;;;;;23.13;20.73;;;15.30;99.90;;;;;;2617004;39;21958;-84
2023/05/07 22:31:06;;;;;;;23.40;20.80;;;15.30;99.90;;;;;;2615527;54;20423;-83
2023/05/07 22:36:54;;;;;;;21.80;19.33;;;15.20;99.90;;;;;;2615815;54;20423;-83
2023/05/07 22:42:42;;;;;;;25.00;20.20;;;15.20;99.90;;;;;;2615354;54;20517;-84
2023/05/07 22:48:32;;;;;;;22.90;20.57;;;15.10;99.90;;;;;;2616302;54;20478;-84
2023/05/07 22:58:19;;;;;;;26.03;21.70;;;15.00;99.90;;;;;;2615226;54;20423;-82
2023/05/07 23:04:07;;;;;;;23.00;20.80;;;15.00;99.90;;;;;;2615990;54;20404;-84
2023/05/07 23:09:55;;;;;;;22.10;19.80;;;15.00;99.90;;;;;;2615947;54;20374;-84
2023/05/07 23:15:43;;;;;;;23.30;21.10;;;14.90;99.90;;;;;;2620519;54;20688;-81
2023/05/07 23:21:31;;;;;;;27.53;20.90;;;14.90;99.90;;;;;;2626338;54;20178;-81
2023/05/07 23:27:19;;;;;;;24.73;22.03;;;14.90;99.90;;;;;;2627092;54;20166;-82
2023/05/07 23:33:07;;;;;;;25.17;21.73;;;14.80;99.90;;;;;;2627047;54;20123;-82
2023/05/07 23:38:55;;;;;;;23.33;20.93;;;14.80;99.90;;;;;;2625433;54;20134;-81
2023/05/07 23:44:43;;;;;;;24.40;21.33;;;14.70;99.90;;;;;;2623611;54;20130;-81
2023/05/07 23:50:31;;;;;;;23.00;20.60;;;14.60;99.90;;;;;;2622610;54;20143;-82
2023/05/07 23:53:51;;;;;;;24.57;22.10;;;14.60;99.90;;;;;;2621808;54;20511;-81
2023/05/07 23:56:17;;;;;;;23.83;21.30;;;14.50;99.90;;;;;;2621389;54;20159;-81
